createdAt,value
2023-02-03T00:01:28.529Z,7.52
2023-02-03T00:03:56.486Z,7.54
2023-02-03T00:06:24.661Z,7.56
2023-02-03T00:08:56.487Z,7.68
2023-02-03T00:11:24.521Z,7.40
2023-02-03T00:13:52.293Z,7.41
2023-02-03T00:16:20.113Z,7.56
2023-02-03T00:18:49.310Z,7.57
2023-02-03T00:21:17.668Z,7.63
2023-02-03T00:23:45.519Z,7.54
2023-02-03T00:26:15.288Z,7.35
2023-02-03T00:28:44.532Z,7.69
2023-02-03T00:31:16.984Z,7.69
2023-02-03T00:33:49.066Z,7.53
2023-02-03T00:36:18.609Z,7.43
2023-02-03T00:38:46.405Z,7.66
2023-02-03T00:41:14.512Z,7.59
2023-02-03T00:43:42.340Z,7.68
2023-02-03T00:46:10.126Z,7.69
2023-02-03T00:48:38.008Z,7.65
2023-02-03T00:51:07.656Z,7.58
2023-02-03T00:53:35.596Z,7.63
2023-02-03T00:56:03.430Z,7.70
2023-02-03T00:58:31.232Z,7.71
2023-02-03T01:00:59.095Z,7.50
2023-02-03T01:03:26.891Z,7.65
2023-02-03T01:05:54.729Z,7.75
2023-02-03T01:08:24.279Z,7.63
2023-02-03T01:10:54.363Z,7.59
2023-02-03T01:13:22.179Z,7.79
2023-02-03T01:15:49.927Z,7.51
2023-02-03T01:18:17.691Z,7.76
2023-02-03T01:20:45.820Z,7.74
2023-02-03T01:23:13.648Z,7.77
2023-02-03T01:25:42.864Z,7.70
2023-02-03T01:28:10.785Z,7.72
2023-02-03T01:30:41.583Z,7.51
2023-02-03T01:33:09.367Z,7.39
2023-02-03T01:35:37.198Z,7.62
2023-02-03T01:38:05.056Z,7.72
2023-02-03T01:40:32.901Z,7.77
2023-02-03T01:43:02.401Z,7.54
2023-02-03T01:45:32.328Z,7.68
2023-02-03T01:48:01.062Z,7.63
2023-02-03T01:50:32.902Z,7.65
2023-02-03T01:53:03.272Z,7.68
2023-02-03T01:55:35.594Z,7.67
2023-02-03T01:58:09.841Z,7.67
2023-02-03T02:00:37.671Z,7.79
2023-02-03T02:03:07.515Z,7.69
2023-02-03T02:05:40.339Z,7.61
2023-02-03T02:08:14.713Z,7.75
2023-02-03T02:10:45.861Z,7.71
2023-02-03T02:13:15.927Z,7.77
2023-02-03T02:15:55.727Z,7.82
2023-02-03T02:18:44.201Z,7.82
2023-02-03T02:21:44.765Z,7.80
2023-02-03T02:24:44.508Z,7.67
2023-02-03T02:27:27.378Z,7.57
2023-02-03T02:30:33.613Z,7.58
2023-02-03T02:33:15.811Z,7.57
2023-02-03T02:35:53.132Z,7.76
2023-02-03T02:38:36.283Z,7.49
2023-02-03T02:41:09.337Z,7.72
2023-02-03T02:43:43.931Z,7.47
2023-02-03T02:46:14.722Z,7.64
2023-02-03T02:48:50.803Z,7.52
2023-02-03T02:51:21.687Z,7.59
2023-02-03T02:53:54.275Z,7.75
2023-02-03T02:56:23.078Z,7.79
2023-02-03T02:58:52.789Z,7.75
2023-02-03T03:01:20.550Z,7.80
2023-02-03T03:03:52.326Z,8.04
2023-02-03T03:06:24.318Z,8.02
2023-02-03T03:08:57.034Z,7.75
2023-02-03T03:11:27.696Z,7.70
2023-02-03T03:13:58.028Z,7.73
2023-02-03T03:16:28.604Z,7.73
2023-02-03T03:19:02.462Z,7.73
2023-02-03T03:21:35.967Z,7.73
2023-02-03T03:24:09.954Z,7.83
2023-02-03T03:26:44.926Z,7.80
2023-02-03T03:29:19.278Z,7.87
2023-02-03T03:31:47.702Z,7.93
2023-02-03T03:34:19.936Z,7.92
2023-02-03T03:36:59.369Z,7.90
2023-02-03T03:39:35.010Z,7.79
2023-02-03T03:42:10.501Z,7.77
2023-02-03T03:44:43.418Z,7.86
2023-02-03T03:47:17.763Z,7.91
2023-02-03T03:49:49.462Z,7.57
2023-02-03T03:52:22.846Z,8.01
2023-02-03T03:54:52.291Z,7.97
2023-02-03T03:57:25.086Z,8.11
2023-02-03T03:59:53.431Z,8.12
2023-02-03T04:02:22.330Z,7.95
2023-02-03T04:04:55.929Z,8.03
2023-02-03T04:07:23.691Z,8.05
2023-02-03T04:09:51.549Z,8.12
2023-02-03T04:12:24.013Z,8.15
2023-02-03T04:14:51.785Z,8.11
2023-02-03T04:17:21.616Z,8.06
2023-02-03T04:19:49.712Z,8.26
2023-02-03T04:22:21.083Z,8.05
2023-02-03T04:24:48.811Z,7.96
2023-02-03T04:27:16.561Z,8.12
2023-02-03T04:29:44.310Z,8.06
2023-02-03T04:32:12.187Z,8.08
2023-02-03T04:34:39.973Z,8.07
2023-02-03T04:37:10.228Z,8.14
2023-02-03T04:39:39.419Z,7.97
2023-02-03T04:42:07.185Z,7.61
2023-02-03T04:44:34.946Z,7.69
2023-02-03T04:47:02.731Z,7.34
2023-02-03T04:49:30.498Z,7.59
2023-02-03T04:52:00.566Z,7.62
2023-02-03T04:54:28.356Z,7.69
2023-02-03T04:56:57.445Z,7.79
2023-02-03T04:59:25.151Z,7.81
2023-02-03T05:01:53.207Z,7.79
2023-02-03T05:04:21.277Z,7.83
2023-02-03T05:06:49.154Z,7.81
2023-02-03T05:09:17.321Z,7.90
2023-02-03T05:11:44.980Z,7.59
2023-02-03T05:14:16.217Z,7.54
2023-02-03T05:16:46.649Z,7.76
2023-02-03T05:19:14.908Z,7.61
2023-02-03T05:21:42.730Z,7.81
2023-02-03T05:24:10.876Z,7.80
2023-02-03T05:26:38.682Z,7.80
2023-02-03T05:29:06.566Z,7.35
2023-02-03T05:31:35.710Z,7.35
2023-02-03T05:34:03.493Z,7.38
2023-02-03T05:36:31.236Z,7.51
2023-02-03T05:38:59.440Z,7.46
2023-02-03T05:41:45.017Z,7.25
2023-02-03T05:44:12.899Z,7.50
2023-02-03T05:46:41.975Z,7.56
2023-02-03T05:49:09.801Z,7.51
2023-02-03T05:51:37.538Z,7.56
2023-02-03T05:54:05.452Z,7.47
2023-02-03T05:56:33.416Z,7.46
2023-02-03T05:59:01.240Z,7.55
2023-02-03T06:01:31.147Z,7.42
2023-02-03T06:04:00.595Z,7.17
2023-02-03T06:06:33.070Z,7.41
2023-02-03T06:09:01.475Z,7.40
2023-02-03T06:11:29.452Z,7.39
2023-02-03T06:13:58.611Z,7.53
2023-02-03T06:16:27.138Z,7.36
2023-02-03T06:18:58.402Z,7.30
2023-02-03T06:21:27.913Z,7.43
2023-02-03T06:23:56.619Z,7.44
2023-02-03T06:26:25.052Z,7.59
2023-02-03T06:28:52.868Z,7.51
2023-02-03T06:31:20.925Z,7.70
2023-02-03T06:33:50.903Z,7.67
2023-02-03T06:36:18.590Z,7.72
2023-02-03T06:38:47.717Z,7.77
2023-02-03T06:41:15.460Z,7.67
2023-02-03T06:43:43.185Z,7.71
2023-02-03T06:46:11.245Z,7.73
2023-02-03T06:48:39.054Z,7.58
2023-02-03T06:51:09.088Z,7.72
2023-02-03T06:53:36.819Z,7.79
2023-02-03T06:56:08.467Z,7.58
2023-02-03T06:58:36.179Z,7.59
2023-02-03T07:01:04.060Z,7.55
2023-02-03T07:03:31.897Z,7.50
2023-02-03T07:05:59.659Z,7.45
2023-02-03T07:08:27.367Z,7.34
2023-02-03T07:10:55.580Z,7.45
2023-02-03T07:13:24.719Z,7.33
2023-02-03T07:15:52.676Z,7.48
2023-02-03T07:18:45.652Z,7.54
2023-02-03T07:21:13.013Z,7.58
2023-02-03T07:23:41.055Z,7.61
2023-02-03T07:26:09.375Z,7.41
2023-02-03T07:28:38.518Z,7.45
2023-02-03T07:31:08.159Z,7.36
2023-02-03T07:33:36.109Z,7.40
2023-02-03T07:36:04.490Z,7.11
2023-02-03T07:38:32.906Z,7.50
2023-02-03T07:41:00.639Z,7.34
2023-02-03T07:43:28.390Z,7.52
2023-02-03T07:45:57.493Z,7.64
2023-02-03T07:48:25.279Z,7.41
2023-02-03T07:50:53.082Z,7.56
2023-02-03T07:53:20.827Z,7.15
2023-02-03T07:55:48.629Z,7.48
2023-02-03T07:58:17.066Z,7.26
2023-02-03T08:00:44.912Z,7.47
2023-02-03T08:03:13.976Z,7.71
2023-02-03T08:05:41.804Z,7.37
2023-02-03T08:08:12.189Z,7.29
2023-02-03T08:10:40.038Z,7.30
2023-02-03T08:13:07.948Z,7.06
2023-02-03T08:15:35.856Z,7.09
2023-02-03T08:18:03.615Z,7.21
2023-02-03T08:20:32.817Z,7.49
2023-02-03T08:23:03.228Z,7.25
2023-02-03T08:25:31.098Z,7.58
2023-02-03T08:27:59.090Z,7.58
2023-02-03T08:30:27.563Z,7.72
2023-02-03T08:32:55.526Z,7.75
2023-02-03T08:35:25.794Z,7.63
2023-02-03T08:37:55.541Z,7.77
2023-02-03T08:40:23.306Z,7.64
2023-02-03T08:42:51.139Z,7.49
2023-02-03T08:45:18.999Z,7.76
2023-02-03T08:47:46.811Z,7.98
2023-02-03T08:50:14.697Z,7.92
2023-02-03T08:52:42.471Z,7.92
2023-02-03T08:55:12.066Z,7.89
2023-02-03T08:57:40.057Z,7.94
2023-02-03T09:00:11.487Z,7.84
2023-02-03T09:02:39.279Z,7.87
2023-02-03T09:05:07.453Z,7.92
2023-02-03T09:07:35.253Z,7.99
2023-02-03T09:10:03.181Z,7.99
2023-02-03T09:12:32.274Z,8.07
2023-02-03T09:14:59.995Z,8.23
2023-02-03T09:17:28.068Z,7.90
2023-02-03T09:19:55.894Z,7.95
2023-02-03T09:22:23.678Z,8.24
2023-02-03T09:24:53.744Z,8.44
2023-02-03T09:27:21.516Z,8.63
2023-02-03T09:29:50.624Z,8.77
2023-02-03T09:32:18.418Z,8.73
2023-02-03T09:34:46.150Z,8.72
2023-02-03T09:37:15.984Z,9.22
2023-02-03T09:39:43.775Z,9.40
2023-02-03T09:42:37.409Z,9.06
2023-02-03T09:45:19.035Z,8.96
2023-02-03T09:47:53.943Z,9.05
2023-02-03T09:50:27.723Z,9.00
2023-02-03T09:52:58.519Z,9.09
2023-02-03T09:55:31.044Z,8.98
2023-02-03T09:58:05.056Z,9.01
2023-02-03T10:00:37.504Z,9.17
2023-02-03T10:03:09.559Z,9.16
2023-02-03T10:06:02.528Z,8.92
2023-02-03T10:08:44.624Z,9.32
2023-02-03T10:11:23.707Z,9.21
2023-02-03T10:14:05.900Z,9.39
2023-02-03T10:16:46.637Z,9.43
2023-02-03T10:19:21.321Z,9.35
2023-02-03T10:21:52.650Z,9.34
2023-02-03T10:24:27.575Z,9.07
2023-02-03T10:26:55.854Z,9.18
2023-02-03T10:29:32.959Z,9.37
2023-02-03T10:32:02.460Z,9.34
2023-02-03T10:34:30.435Z,9.50
2023-02-03T10:37:01.872Z,9.55
2023-02-03T10:39:34.243Z,9.16
2023-02-03T10:42:03.673Z,9.28
2023-02-03T10:44:37.753Z,9.06
2023-02-03T10:47:21.764Z,9.23
2023-02-03T10:49:52.609Z,9.64
2023-02-03T10:52:30.144Z,9.47
2023-02-03T10:54:59.328Z,9.73
2023-02-03T10:57:29.717Z,9.83
2023-02-03T11:00:10.352Z,10.01
2023-02-03T11:02:39.568Z,9.84
2023-02-03T11:05:19.646Z,10.12
2023-02-03T11:07:48.059Z,9.90
2023-02-03T11:10:28.683Z,9.85
2023-02-03T11:13:12.865Z,9.75
2023-02-03T11:15:46.140Z,9.84
2023-02-03T11:18:44.998Z,9.34
2023-02-03T11:21:19.192Z,9.71
2023-02-03T11:23:51.477Z,9.52
2023-02-03T11:26:22.124Z,9.59
2023-02-03T11:28:52.620Z,9.59
2023-02-03T11:31:24.799Z,9.77
2023-02-03T11:33:58.620Z,9.57
2023-02-03T11:36:31.582Z,9.51
2023-02-03T11:39:26.369Z,9.62
2023-02-03T11:41:54.709Z,9.57
2023-02-03T11:44:26.138Z,9.61
2023-02-03T11:46:58.377Z,9.73
2023-02-03T11:49:53.286Z,9.76
2023-02-03T11:52:42.043Z,9.58
2023-02-03T11:55:21.057Z,9.82
2023-02-03T11:58:01.805Z,9.90
2023-02-03T12:00:37.948Z,10.15
2023-02-03T12:03:31.398Z,9.92
2023-02-03T12:06:15.531Z,9.65
2023-02-03T12:09:01.954Z,9.95
2023-02-03T12:11:42.254Z,10.06
2023-02-03T12:14:24.789Z,9.88
2023-02-03T12:17:14.059Z,9.75
2023-02-03T12:19:59.120Z,9.93
2023-02-03T12:22:35.529Z,9.67
2023-02-03T12:25:18.149Z,9.67
2023-02-03T12:27:54.757Z,9.70
2023-02-03T12:30:29.984Z,9.76
2023-02-03T12:33:01.342Z,9.83
2023-02-03T12:35:37.272Z,9.48
2023-02-03T12:38:14.128Z,9.48
2023-02-03T12:40:49.153Z,9.48
2023-02-03T12:43:26.483Z,9.39
2023-02-03T12:45:59.115Z,9.38
2023-02-03T12:48:33.591Z,9.36
2023-02-03T12:51:07.451Z,9.41
2023-02-03T12:53:40.743Z,9.44
2023-02-03T12:56:11.751Z,9.37
2023-02-03T12:58:42.956Z,9.60
2023-02-03T13:01:18.908Z,9.54
2023-02-03T13:03:52.527Z,9.80
2023-02-03T13:06:27.643Z,9.71
2023-02-03T13:09:03.703Z,9.67
2023-02-03T13:11:38.641Z,9.42
2023-02-03T13:14:17.336Z,9.54
2023-02-03T13:16:49.005Z,9.59
2023-02-03T13:19:22.830Z,9.51
2023-02-03T13:21:50.874Z,9.44
2023-02-03T13:24:22.012Z,9.41
2023-02-03T13:27:09.161Z,9.46
2023-02-03T13:29:51.458Z,9.32
2023-02-03T13:32:37.898Z,9.40
2023-02-03T13:35:33.549Z,9.40
2023-02-03T13:38:29.139Z,9.29
2023-02-03T13:41:06.600Z,9.35
2023-02-03T13:43:39.434Z,9.45
2023-02-03T13:46:20.436Z,9.38
2023-02-03T13:48:48.817Z,9.31
2023-02-03T13:51:21.060Z,9.39
2023-02-03T13:53:50.628Z,9.29
2023-02-03T13:56:23.867Z,9.53
2023-02-03T13:59:04.469Z,9.53
2023-02-03T14:01:36.440Z,9.45
2023-02-03T14:04:05.555Z,9.36
2023-02-03T14:07:01.101Z,9.55
2023-02-03T14:09:43.110Z,9.50
2023-02-03T14:12:34.274Z,9.61
2023-02-03T14:15:18.309Z,9.35
2023-02-03T14:18:06.713Z,9.37
2023-02-03T14:20:52.335Z,9.35
2023-02-03T14:23:28.196Z,9.45
2023-02-03T14:25:59.676Z,9.55
2023-02-03T14:28:39.856Z,9.27
2023-02-03T14:31:17.671Z,9.15
2023-02-03T14:34:06.159Z,9.19
2023-02-03T14:36:41.508Z,9.29
2023-02-03T14:39:55.376Z,9.30
2023-02-03T14:42:44.336Z,9.49
2023-02-03T14:45:32.224Z,9.24
2023-02-03T14:48:10.393Z,9.47
2023-02-03T14:50:52.254Z,9.30
2023-02-03T14:53:35.740Z,9.12
2023-02-03T14:56:14.566Z,9.21
2023-02-03T14:58:47.175Z,9.23
2023-02-03T15:01:29.135Z,9.47
2023-02-03T15:04:23.030Z,9.56
2023-02-03T15:06:53.106Z,9.28
2023-02-03T15:09:28.342Z,9.32
2023-02-03T15:11:56.145Z,9.11
2023-02-03T15:14:27.092Z,9.20
2023-02-03T15:16:59.276Z,9.19
2023-02-03T15:19:31.064Z,9.12
2023-02-03T15:22:01.689Z,9.28
2023-02-03T15:24:36.580Z,9.18
2023-02-03T15:27:04.595Z,9.18
2023-02-03T15:29:34.158Z,9.39
2023-02-03T15:32:10.978Z,9.38
2023-02-03T15:34:45.663Z,9.26
2023-02-03T15:37:19.489Z,9.20
2023-02-03T15:39:56.832Z,9.16
2023-02-03T15:42:30.620Z,9.18
2023-02-03T15:45:16.381Z,9.30
2023-02-03T15:47:52.609Z,9.09
2023-02-03T15:50:30.895Z,9.28
2023-02-03T15:53:07.350Z,9.08
2023-02-03T15:55:39.232Z,9.24
2023-02-03T15:58:08.155Z,9.18
2023-02-03T16:00:39.612Z,9.16
2023-02-03T16:03:19.556Z,9.24
2023-02-03T16:05:49.729Z,9.19
2023-02-03T16:08:29.552Z,9.22
2023-02-03T16:10:57.647Z,8.94
2023-02-03T16:13:27.832Z,8.92
2023-02-03T16:16:05.779Z,8.81
2023-02-03T16:18:36.886Z,9.04
2023-02-03T16:21:06.708Z,8.88
2023-02-03T16:23:36.562Z,9.00
2023-02-03T16:26:18.435Z,8.82
2023-02-03T16:29:14.573Z,8.73
2023-02-03T16:32:04.720Z,8.87
2023-02-03T16:34:51.949Z,8.76
2023-02-03T16:37:42.790Z,8.68
2023-02-03T16:40:32.184Z,8.95
2023-02-03T16:43:17.714Z,8.67
2023-02-03T16:46:03.238Z,8.80
2023-02-03T16:48:50.762Z,8.62
2023-02-03T16:51:21.066Z,8.58
2023-02-03T16:53:49.059Z,8.57
2023-02-03T16:56:18.587Z,8.74
2023-02-03T16:58:46.370Z,8.68
2023-02-03T17:01:14.339Z,8.51
2023-02-03T17:03:42.417Z,8.69
2023-02-03T17:06:12.569Z,8.66
2023-02-03T17:08:42.614Z,8.60
2023-02-03T17:11:15.367Z,8.65
2023-02-03T17:13:43.594Z,8.65
2023-02-03T17:16:14.156Z,8.84
2023-02-03T17:18:41.974Z,8.73
2023-02-03T17:21:11.871Z,8.72
2023-02-03T17:23:41.349Z,8.65
2023-02-03T17:26:11.558Z,8.64
2023-02-03T17:28:41.058Z,8.76
2023-02-03T17:31:14.529Z,8.73
2023-02-03T17:33:42.644Z,8.80
2023-02-03T17:36:13.283Z,8.91
2023-02-03T17:55:21.565Z,8.93
2023-02-03T17:57:49.445Z,9.01
2023-02-03T18:00:17.847Z,8.99
2023-02-03T18:02:45.833Z,8.96
2023-02-03T18:05:13.669Z,8.96
2023-02-03T18:07:41.431Z,9.03
2023-02-03T18:10:09.825Z,8.85
2023-02-03T18:12:38.943Z,8.97
2023-02-03T18:15:07.180Z,8.88
2023-02-03T18:17:37.561Z,9.05
2023-02-03T18:20:05.967Z,9.06
2023-02-03T18:22:34.584Z,9.02
2023-02-03T18:25:02.362Z,8.98
2023-02-03T18:27:30.247Z,9.02
2023-02-03T18:29:59.402Z,9.15
2023-02-03T18:32:29.814Z,8.90
2023-02-03T18:34:57.559Z,8.97
2023-02-03T18:37:25.306Z,9.18
2023-02-03T18:39:53.313Z,9.16
2023-02-03T18:42:21.534Z,8.97
2023-02-03T18:44:49.237Z,9.04
2023-02-03T18:47:18.474Z,9.06
2023-02-03T18:49:47.968Z,8.89
2023-02-03T18:52:15.731Z,8.97
2023-02-03T18:54:43.453Z,8.92
2023-02-03T18:57:13.187Z,8.99
2023-02-03T18:59:40.866Z,8.90
2023-02-03T19:02:11.222Z,8.88
2023-02-03T19:04:40.470Z,8.98
2023-02-03T19:07:08.159Z,8.99
2023-02-03T19:09:35.942Z,8.99
2023-02-03T19:12:04.150Z,8.82
2023-02-03T19:14:32.654Z,8.89
2023-02-03T19:17:00.463Z,9.03
2023-02-03T19:19:28.472Z,8.89
2023-02-03T19:21:58.503Z,8.85
2023-02-03T19:24:27.091Z,8.81
2023-02-03T19:26:55.153Z,8.85
2023-02-03T19:29:22.880Z,8.93
2023-02-03T19:31:50.837Z,8.89
2023-02-03T19:34:19.414Z,8.81
2023-02-03T19:36:47.805Z,8.78
2023-02-03T19:39:18.629Z,8.80
2023-02-03T19:41:46.383Z,8.77
2023-02-03T19:44:14.323Z,8.88
2023-02-03T19:46:42.438Z,8.89
2023-02-03T19:49:13.220Z,8.94
2023-02-03T19:51:41.228Z,8.92
2023-02-03T19:54:11.904Z,9.06
2023-02-03T19:56:41.299Z,9.01
2023-02-03T19:59:09.290Z,8.98
2023-02-03T20:01:37.640Z,8.90
2023-02-03T20:04:07.410Z,9.04
2023-02-03T20:06:35.344Z,8.97
2023-02-03T20:09:04.171Z,8.98
2023-02-03T20:11:32.060Z,9.03
2023-02-03T20:14:01.281Z,9.10
2023-02-03T20:16:29.069Z,9.09
2023-02-03T20:18:58.103Z,9.12
2023-02-03T20:21:25.803Z,9.03
2023-02-03T20:23:54.222Z,8.99
2023-02-03T20:26:21.979Z,9.10
2023-02-03T20:28:49.793Z,9.04
2023-02-03T20:31:19.070Z,8.83
2023-02-03T20:33:46.947Z,9.09
2023-02-03T20:36:14.792Z,9.01
2023-02-03T20:38:42.550Z,8.86
2023-02-03T20:41:12.170Z,8.82
2023-02-03T20:43:40.275Z,8.93
2023-02-03T20:46:11.824Z,9.02
2023-02-03T20:48:41.171Z,8.83
2023-02-03T20:51:12.213Z,8.97
2023-02-03T20:53:40.586Z,9.08
2023-02-03T20:56:14.143Z,8.96
2023-02-03T20:58:43.755Z,9.11
2023-02-03T21:01:15.782Z,8.97
2023-02-03T21:04:02.643Z,8.97
2023-02-03T21:06:32.460Z,8.97
2023-02-03T21:09:09.035Z,8.99
2023-02-03T21:11:36.788Z,8.98
2023-02-03T21:14:06.454Z,8.99
2023-02-03T21:16:39.139Z,9.01
2023-02-03T21:19:13.474Z,9.02
2023-02-03T21:21:43.903Z,8.99
2023-02-03T21:24:25.744Z,9.04
2023-02-03T21:26:54.074Z,9.05
2023-02-03T21:29:25.626Z,9.05
2023-02-03T21:31:54.962Z,9.23
2023-02-03T21:34:31.896Z,9.07
2023-02-03T21:37:08.220Z,9.11
2023-02-03T21:39:36.076Z,9.08
2023-02-03T21:42:40.682Z,9.22
2023-02-03T21:45:30.850Z,9.18
2023-02-03T21:48:00.151Z,9.19
2023-02-03T21:50:31.906Z,9.02
2023-02-03T21:53:20.041Z,9.09
2023-02-03T21:55:47.974Z,9.02
2023-02-03T21:58:23.479Z,9.18
2023-02-03T22:00:52.466Z,9.10
2023-02-03T22:03:26.417Z,9.05
2023-02-03T22:06:05.661Z,9.05
2023-02-03T22:08:36.812Z,9.06
2023-02-03T22:11:05.173Z,8.99
2023-02-03T22:13:33.263Z,9.06
2023-02-03T22:16:01.313Z,9.10
2023-02-03T22:18:29.084Z,8.95
2023-02-03T22:20:58.249Z,8.82
2023-02-03T22:23:26.078Z,9.06
2023-02-03T22:25:53.881Z,8.94
2023-02-03T22:28:21.791Z,8.99
2023-02-03T22:30:49.772Z,8.92
2023-02-03T22:33:17.676Z,9.08
2023-02-03T22:35:45.861Z,8.91
2023-02-03T22:38:14.995Z,8.83
2023-02-03T22:40:42.747Z,8.71
2023-02-03T22:43:10.647Z,8.93
2023-02-03T22:45:38.522Z,8.72
2023-02-03T22:48:06.577Z,8.74
2023-02-03T22:50:36.518Z,8.80
2023-02-03T22:53:04.691Z,8.74
2023-02-03T22:55:37.483Z,8.71
2023-02-03T22:58:06.081Z,8.72
2023-02-03T23:00:36.117Z,8.91
2023-02-03T23:03:04.183Z,8.97
2023-02-03T23:05:32.298Z,8.96
2023-02-03T23:08:00.167Z,9.08
2023-02-03T23:10:30.971Z,9.07
2023-02-03T23:13:01.681Z,9.01
2023-02-03T23:15:30.114Z,9.05
2023-02-03T23:18:00.991Z,8.93
2023-02-03T23:20:28.894Z,8.80
2023-02-03T23:22:56.792Z,8.85
2023-02-03T23:25:24.551Z,8.90
2023-02-03T23:27:52.399Z,8.94
2023-02-03T23:30:21.693Z,8.95
2023-02-03T23:32:49.456Z,8.92
2023-02-03T23:35:40.097Z,8.70
2023-02-03T23:38:07.856Z,8.78
2023-02-03T23:40:35.692Z,8.86
2023-02-03T23:43:03.423Z,9.04
2023-02-03T23:45:32.660Z,8.94
2023-02-03T23:48:00.576Z,9.01
2023-02-03T23:50:28.716Z,9.18
2023-02-03T23:52:56.602Z,8.90
2023-02-03T23:55:24.445Z,9.05
2023-02-03T23:57:52.217Z,8.94
